sensor_id;sensor_type;location;lat;lon;timestamp;temperature;humidity
65050;DHT22;52090;51.224;-2.328;2023-02-02T00:01:34;9.80;93.80
65050;DHT22;52090;51.224;-2.328;2023-02-02T00:05:16;9.80;93.80
65050;DHT22;52090;51.224;-2.328;2023-02-02T00:08:59;9.80;93.80
65050;DHT22;52090;51.224;-2.328;2023-02-02T00:12:41;9.80;93.90
65050;DHT22;52090;51.224;-2.328;2023-02-02T00:20:11;9.80;93.80
65050;DHT22;52090;51.224;-2.328;2023-02-02T00:23:53;9.80;93.80
65050;DHT22;52090;51.224;-2.328;2023-02-02T00:27:35;9.80;93.80
65050;DHT22;52090;51.224;-2.328;2023-02-02T00:31:17;9.80;93.80
65050;DHT22;52090;51.224;-2.328;2023-02-02T00:34:59;9.80;93.90
65050;DHT22;52090;51.224;-2.328;2023-02-02T00:38:40;9.80;93.80
65050;DHT22;52090;51.224;-2.328;2023-02-02T00:42:22;9.80;93.80
65050;DHT22;52090;51.224;-2.328;2023-02-02T00:46:04;9.80;93.80
65050;DHT22;52090;51.224;-2.328;2023-02-02T00:49:46;9.80;93.90
65050;DHT22;52090;51.224;-2.328;2023-02-02T00:53:28;9.80;93.80
65050;DHT22;52090;51.224;-2.328;2023-02-02T00:57:13;9.80;93.80
65050;DHT22;52090;51.224;-2.328;2023-02-02T01:00:55;9.80;93.90
65050;DHT22;52090;51.224;-2.328;2023-02-02T01:04:38;9.80;93.80
65050;DHT22;52090;51.224;-2.328;2023-02-02T01:08:19;9.80;93.80
65050;DHT22;52090;51.224;-2.328;2023-02-02T01:12:01;9.80;93.70
65050;DHT22;52090;51.224;-2.328;2023-02-02T01:15:43;9.80;93.80
65050;DHT22;52090;51.224;-2.328;2023-02-02T01:19:25;9.70;93.70
65050;DHT22;52090;51.224;-2.328;2023-02-02T01:23:07;9.70;93.60
65050;DHT22;52090;51.224;-2.328;2023-02-02T01:26:48;9.70;93.60
65050;DHT22;52090;51.224;-2.328;2023-02-02T01:30:30;9.60;93.60
65050;DHT22;52090;51.224;-2.328;2023-02-02T01:34:12;9.60;93.70
65050;DHT22;52090;51.224;-2.328;2023-02-02T01:37:54;9.60;93.70
65050;DHT22;52090;51.224;-2.328;2023-02-02T01:41:36;9.60;93.80
65050;DHT22;52090;51.224;-2.328;2023-02-02T01:45:20;9.60;93.70
65050;DHT22;52090;51.224;-2.328;2023-02-02T01:49:13;9.60;93.70
65050;DHT22;52090;51.224;-2.328;2023-02-02T01:52:58;9.60;93.60
65050;DHT22;52090;51.224;-2.328;2023-02-02T01:56:45;9.60;93.60
65050;DHT22;52090;51.224;-2.328;2023-02-02T02:00:30;9.60;93.60
65050;DHT22;52090;51.224;-2.328;2023-02-02T02:04:12;9.60;93.60
65050;DHT22;52090;51.224;-2.328;2023-02-02T02:08:32;9.60;93.60
65050;DHT22;52090;51.224;-2.328;2023-02-02T02:12:15;9.60;93.60
65050;DHT22;52090;51.224;-2.328;2023-02-02T02:16:04;9.60;93.70
65050;DHT22;52090;51.224;-2.328;2023-02-02T02:33:03;9.50;94.00
65050;DHT22;52090;51.224;-2.328;2023-02-02T02:37:01;9.60;94.00
65050;DHT22;52090;51.224;-2.328;2023-02-02T02:40:56;9.60;94.10
65050;DHT22;52090;51.224;-2.328;2023-02-02T02:44:41;9.60;94.00
65050;DHT22;52090;51.224;-2.328;2023-02-02T02:48:23;9.60;94.20
65050;DHT22;52090;51.224;-2.328;2023-02-02T02:52:06;9.60;93.90
65050;DHT22;52090;51.224;-2.328;2023-02-02T03:00:05;9.60;94.10
65050;DHT22;52090;51.224;-2.328;2023-02-02T03:04:11;9.60;94.00
65050;DHT22;52090;51.224;-2.328;2023-02-02T03:11:41;9.70;94.00
65050;DHT22;52090;51.224;-2.328;2023-02-02T03:15:23;9.70;94.00
65050;DHT22;52090;51.224;-2.328;2023-02-02T03:19:06;9.70;94.00
65050;DHT22;52090;51.224;-2.328;2023-02-02T03:22:48;9.60;93.90
65050;DHT22;52090;51.224;-2.328;2023-02-02T03:26:30;9.70;94.00
65050;DHT22;52090;51.224;-2.328;2023-02-02T03:30:13;9.70;93.90
65050;DHT22;52090;51.224;-2.328;2023-02-02T03:33:55;9.70;93.90
65050;DHT22;52090;51.224;-2.328;2023-02-02T03:37:37;9.70;93.80
65050;DHT22;52090;51.224;-2.328;2023-02-02T03:41:19;9.70;93.80
65050;DHT22;52090;51.224;-2.328;2023-02-02T03:45:01;9.70;93.80
65050;DHT22;52090;51.224;-2.328;2023-02-02T03:48:42;9.70;93.70
65050;DHT22;52090;51.224;-2.328;2023-02-02T03:52:25;9.70;93.70
65050;DHT22;52090;51.224;-2.328;2023-02-02T03:56:06;9.70;93.70
65050;DHT22;52090;51.224;-2.328;2023-02-02T03:59:48;9.70;93.70
65050;DHT22;52090;51.224;-2.328;2023-02-02T04:03:30;9.60;93.60
65050;DHT22;52090;51.224;-2.328;2023-02-02T04:07:13;9.60;93.70
65050;DHT22;52090;51.224;-2.328;2023-02-02T04:10:55;9.60;93.60
65050;DHT22;52090;51.224;-2.328;2023-02-02T04:14:36;9.60;93.50
65050;DHT22;52090;51.224;-2.328;2023-02-02T04:18:18;9.60;93.50
65050;DHT22;52090;51.224;-2.328;2023-02-02T04:22:00;9.50;93.30
65050;DHT22;52090;51.224;-2.328;2023-02-02T04:25:49;9.50;93.20
65050;DHT22;52090;51.224;-2.328;2023-02-02T04:29:31;9.40;93.40
65050;DHT22;52090;51.224;-2.328;2023-02-02T04:33:13;9.40;93.20
65050;DHT22;52090;51.224;-2.328;2023-02-02T04:36:55;9.30;93.10
65050;DHT22;52090;51.224;-2.328;2023-02-02T04:40:41;9.30;93.10
65050;DHT22;52090;51.224;-2.328;2023-02-02T04:44:23;9.20;93.00
65050;DHT22;52090;51.224;-2.328;2023-02-02T04:48:05;9.20;93.00
65050;DHT22;52090;51.224;-2.328;2023-02-02T04:51:47;9.10;93.00
65050;DHT22;52090;51.224;-2.328;2023-02-02T04:55:34;9.10;93.10
65050;DHT22;52090;51.224;-2.328;2023-02-02T04:59:16;9.00;93.70
65050;DHT22;52090;51.224;-2.328;2023-02-02T05:02:57;9.00;93.30
65050;DHT22;52090;51.224;-2.328;2023-02-02T05:06:40;9.00;93.60
65050;DHT22;52090;51.224;-2.328;2023-02-02T05:10:22;9.00;94.00
65050;DHT22;52090;51.224;-2.328;2023-02-02T05:14:04;9.10;94.60
65050;DHT22;52090;51.224;-2.328;2023-02-02T05:17:46;9.20;94.40
65050;DHT22;52090;51.224;-2.328;2023-02-02T05:21:28;9.20;94.50
65050;DHT22;52090;51.224;-2.328;2023-02-02T05:25:10;9.30;94.60
65050;DHT22;52090;51.224;-2.328;2023-02-02T05:28:52;9.30;94.60
65050;DHT22;52090;51.224;-2.328;2023-02-02T05:32:34;9.40;94.70
65050;DHT22;52090;51.224;-2.328;2023-02-02T05:36:15;9.40;94.60
65050;DHT22;52090;51.224;-2.328;2023-02-02T05:39:57;9.40;94.50
65050;DHT22;52090;51.224;-2.328;2023-02-02T05:43:39;9.40;94.50
65050;DHT22;52090;51.224;-2.328;2023-02-02T05:47:21;9.40;94.50
65050;DHT22;52090;51.224;-2.328;2023-02-02T05:51:20;9.30;94.50
65050;DHT22;52090;51.224;-2.328;2023-02-02T05:55:02;9.30;94.60
65050;DHT22;52090;51.224;-2.328;2023-02-02T05:58:45;9.30;94.40
65050;DHT22;52090;51.224;-2.328;2023-02-02T06:02:28;9.30;94.40
65050;DHT22;52090;51.224;-2.328;2023-02-02T06:06:10;9.30;94.40
65050;DHT22;52090;51.224;-2.328;2023-02-02T06:09:52;9.30;94.50
65050;DHT22;52090;51.224;-2.328;2023-02-02T06:13:33;9.30;94.60
65050;DHT22;52090;51.224;-2.328;2023-02-02T06:17:16;9.30;94.50
65050;DHT22;52090;51.224;-2.328;2023-02-02T06:20:58;9.30;94.60
65050;DHT22;52090;51.224;-2.328;2023-02-02T06:24:40;9.30;94.60
65050;DHT22;52090;51.224;-2.328;2023-02-02T06:28:22;9.30;94.70
65050;DHT22;52090;51.224;-2.328;2023-02-02T06:32:04;9.30;94.70
65050;DHT22;52090;51.224;-2.328;2023-02-02T06:35:46;9.30;94.80
65050;DHT22;52090;51.224;-2.328;2023-02-02T06:39:28;9.40;94.80
65050;DHT22;52090;51.224;-2.328;2023-02-02T06:43:09;9.40;94.90
65050;DHT22;52090;51.224;-2.328;2023-02-02T06:46:55;9.40;94.80
65050;DHT22;52090;51.224;-2.328;2023-02-02T06:50:37;9.40;94.90
65050;DHT22;52090;51.224;-2.328;2023-02-02T06:54:19;9.40;94.90
65050;DHT22;52090;51.224;-2.328;2023-02-02T06:58:01;9.40;95.00
65050;DHT22;52090;51.224;-2.328;2023-02-02T07:01:43;9.40;95.10
65050;DHT22;52090;51.224;-2.328;2023-02-02T07:05:26;9.30;95.10
65050;DHT22;52090;51.224;-2.328;2023-02-02T07:09:11;9.40;95.20
65050;DHT22;52090;51.224;-2.328;2023-02-02T07:12:53;9.40;95.10
65050;DHT22;52090;51.224;-2.328;2023-02-02T07:16:35;9.40;95.20
65050;DHT22;52090;51.224;-2.328;2023-02-02T07:20:16;9.40;95.20
65050;DHT22;52090;51.224;-2.328;2023-02-02T07:23:58;9.40;95.20
65050;DHT22;52090;51.224;-2.328;2023-02-02T07:27:42;9.40;95.30
65050;DHT22;52090;51.224;-2.328;2023-02-02T07:31:25;9.40;95.30
65050;DHT22;52090;51.224;-2.328;2023-02-02T07:35:07;9.40;95.40
65050;DHT22;52090;51.224;-2.328;2023-02-02T07:38:51;9.50;95.70
65050;DHT22;52090;51.224;-2.328;2023-02-02T07:42:38;9.50;95.30
65050;DHT22;52090;51.224;-2.328;2023-02-02T07:46:19;9.40;95.30
65050;DHT22;52090;51.224;-2.328;2023-02-02T07:50:01;9.50;95.40
65050;DHT22;52090;51.224;-2.328;2023-02-02T07:53:45;9.50;95.40
65050;DHT22;52090;51.224;-2.328;2023-02-02T07:57:27;9.50;95.50
65050;DHT22;52090;51.224;-2.328;2023-02-02T08:01:11;9.50;95.60
65050;DHT22;52090;51.224;-2.328;2023-02-02T08:04:53;9.50;95.70
65050;DHT22;52090;51.224;-2.328;2023-02-02T08:08:35;9.50;95.70
65050;DHT22;52090;51.224;-2.328;2023-02-02T08:12:18;9.60;95.80
65050;DHT22;52090;51.224;-2.328;2023-02-02T08:16:00;9.60;95.80
65050;DHT22;52090;51.224;-2.328;2023-02-02T08:19:41;9.60;95.80
65050;DHT22;52090;51.224;-2.328;2023-02-02T08:23:23;9.60;95.80
65050;DHT22;52090;51.224;-2.328;2023-02-02T08:27:06;9.70;95.90
65050;DHT22;52090;51.224;-2.328;2023-02-02T08:30:48;9.70;96.00
65050;DHT22;52090;51.224;-2.328;2023-02-02T08:34:30;9.80;96.00
65050;DHT22;52090;51.224;-2.328;2023-02-02T08:38:15;9.80;96.00
65050;DHT22;52090;51.224;-2.328;2023-02-02T08:41:57;9.80;96.00
65050;DHT22;52090;51.224;-2.328;2023-02-02T08:45:41;9.90;96.10
65050;DHT22;52090;51.224;-2.328;2023-02-02T08:49:43;9.90;96.20
65050;DHT22;52090;51.224;-2.328;2023-02-02T08:53:26;10.00;96.10
65050;DHT22;52090;51.224;-2.328;2023-02-02T08:57:08;10.00;96.10
65050;DHT22;52090;51.224;-2.328;2023-02-02T09:00:50;10.10;96.10
65050;DHT22;52090;51.224;-2.328;2023-02-02T09:04:32;10.10;96.10
65050;DHT22;52090;51.224;-2.328;2023-02-02T09:08:14;10.20;96.10
65050;DHT22;52090;51.224;-2.328;2023-02-02T09:11:56;10.20;96.10
65050;DHT22;52090;51.224;-2.328;2023-02-02T09:15:38;10.20;96.00
65050;DHT22;52090;51.224;-2.328;2023-02-02T09:19:20;10.30;96.00
65050;DHT22;52090;51.224;-2.328;2023-02-02T09:23:02;10.30;96.00
65050;DHT22;52090;51.224;-2.328;2023-02-02T09:26:44;10.30;96.00
65050;DHT22;52090;51.224;-2.328;2023-02-02T09:30:26;10.30;96.00
65050;DHT22;52090;51.224;-2.328;2023-02-02T09:34:09;10.30;96.00
65050;DHT22;52090;51.224;-2.328;2023-02-02T09:37:51;10.40;96.00
65050;DHT22;52090;51.224;-2.328;2023-02-02T09:45:28;10.40;96.10
65050;DHT22;52090;51.224;-2.328;2023-02-02T09:49:21;10.50;96.10
65050;DHT22;52090;51.224;-2.328;2023-02-02T09:57:40;10.60;96.20
65050;DHT22;52090;51.224;-2.328;2023-02-02T10:01:29;10.70;96.10
65050;DHT22;52090;51.224;-2.328;2023-02-02T10:05:23;10.70;96.00
65050;DHT22;52090;51.224;-2.328;2023-02-02T10:13:18;10.70;95.90
65050;DHT22;52090;51.224;-2.328;2023-02-02T10:17:58;10.80;95.90
65050;DHT22;52090;51.224;-2.328;2023-02-02T10:21:39;10.80;95.90
65050;DHT22;52090;51.224;-2.328;2023-02-02T10:25:21;10.80;95.90
65050;DHT22;52090;51.224;-2.328;2023-02-02T10:33:19;10.90;95.90
65050;DHT22;52090;51.224;-2.328;2023-02-02T10:37:21;10.90;96.00
65050;DHT22;52090;51.224;-2.328;2023-02-02T10:41:17;10.90;95.90
65050;DHT22;52090;51.224;-2.328;2023-02-02T10:45:13;11.00;96.20
65050;DHT22;52090;51.224;-2.328;2023-02-02T10:49:28;11.00;95.90
65050;DHT22;52090;51.224;-2.328;2023-02-02T10:53:15;11.00;95.90
65050;DHT22;52090;51.224;-2.328;2023-02-02T10:56:58;11.00;96.00
65050;DHT22;52090;51.224;-2.328;2023-02-02T11:00:55;11.10;96.00
65050;DHT22;52090;51.224;-2.328;2023-02-02T11:04:38;11.10;96.00
65050;DHT22;52090;51.224;-2.328;2023-02-02T11:08:44;11.20;96.00
65050;DHT22;52090;51.224;-2.328;2023-02-02T11:12:33;11.20;96.00
65050;DHT22;52090;51.224;-2.328;2023-02-02T11:19:57;11.30;96.00
65050;DHT22;52090;51.224;-2.328;2023-02-02T11:23:39;11.30;96.00
65050;DHT22;52090;51.224;-2.328;2023-02-02T11:27:23;11.40;95.90
65050;DHT22;52090;51.224;-2.328;2023-02-02T11:31:07;11.40;95.80
65050;DHT22;52090;51.224;-2.328;2023-02-02T11:35:22;11.40;95.70
65050;DHT22;52090;51.224;-2.328;2023-02-02T11:39:20;11.50;95.50
65050;DHT22;52090;51.224;-2.328;2023-02-02T11:47:20;11.50;95.60
65050;DHT22;52090;51.224;-2.328;2023-02-02T11:51:04;11.40;95.50
65050;DHT22;52090;51.224;-2.328;2023-02-02T11:54:49;11.50;95.70
65050;DHT22;52090;51.224;-2.328;2023-02-02T11:58:47;11.50;95.60
65050;DHT22;52090;51.224;-2.328;2023-02-02T12:02:31;11.50;95.40
65050;DHT22;52090;51.224;-2.328;2023-02-02T12:06:21;11.50;95.50
65050;DHT22;52090;51.224;-2.328;2023-02-02T12:10:19;11.60;95.10
65050;DHT22;52090;51.224;-2.328;2023-02-02T12:14:09;11.60;95.10
65050;DHT22;52090;51.224;-2.328;2023-02-02T12:18:44;11.70;95.40
65050;DHT22;52090;51.224;-2.328;2023-02-02T12:59:02;12.20;94.20
65050;DHT22;52090;51.224;-2.328;2023-02-02T13:02:58;12.30;94.10
65050;DHT22;52090;51.224;-2.328;2023-02-02T13:10:42;12.40;94.70
65050;DHT22;52090;51.224;-2.328;2023-02-02T13:14:33;12.40;94.40
65050;DHT22;52090;51.224;-2.328;2023-02-02T13:22:12;12.50;94.20
65050;DHT22;52090;51.224;-2.328;2023-02-02T13:26:06;12.60;93.70
65050;DHT22;52090;51.224;-2.328;2023-02-02T13:29:53;12.60;93.90
65050;DHT22;52090;51.224;-2.328;2023-02-02T13:33:36;12.50;93.70
65050;DHT22;52090;51.224;-2.328;2023-02-02T13:37:33;12.50;93.80
65050;DHT22;52090;51.224;-2.328;2023-02-02T13:41:18;12.50;93.50
65050;DHT22;52090;51.224;-2.328;2023-02-02T13:53:30;12.40;93.00
65050;DHT22;52090;51.224;-2.328;2023-02-02T14:01:08;12.40;93.20
65050;DHT22;52090;51.224;-2.328;2023-02-02T14:04:56;12.40;93.30
65050;DHT22;52090;51.224;-2.328;2023-02-02T14:09:00;12.40;93.20
65050;DHT22;52090;51.224;-2.328;2023-02-02T14:12:43;12.40;92.90
65050;DHT22;52090;51.224;-2.328;2023-02-02T14:20:39;12.40;92.90
65050;DHT22;52090;51.224;-2.328;2023-02-02T14:28:11;12.40;92.90
65050;DHT22;52090;51.224;-2.328;2023-02-02T14:31:55;12.40;92.80
65050;DHT22;52090;51.224;-2.328;2023-02-02T14:39:25;12.40;93.00
65050;DHT22;52090;51.224;-2.328;2023-02-02T14:47:50;12.40;93.00
65050;DHT22;52090;51.224;-2.328;2023-02-02T14:51:44;12.30;92.00
65050;DHT22;52090;51.224;-2.328;2023-02-02T14:55:28;12.30;92.20
65050;DHT22;52090;51.224;-2.328;2023-02-02T14:59:26;12.30;92.70
65050;DHT22;52090;51.224;-2.328;2023-02-02T15:03:33;12.30;92.10
65050;DHT22;52090;51.224;-2.328;2023-02-02T15:11:05;12.30;92.20
65050;DHT22;52090;51.224;-2.328;2023-02-02T15:15:18;12.30;92.50
65050;DHT22;52090;51.224;-2.328;2023-02-02T15:19:10;12.30;92.60
65050;DHT22;52090;51.224;-2.328;2023-02-02T15:23:13;12.30;92.00
65050;DHT22;52090;51.224;-2.328;2023-02-02T15:26:59;12.30;91.90
65050;DHT22;52090;51.224;-2.328;2023-02-02T15:30:48;12.20;92.30
65050;DHT22;52090;51.224;-2.328;2023-02-02T15:34:41;12.10;91.90
65050;DHT22;52090;51.224;-2.328;2023-02-02T15:38:32;12.10;91.80
65050;DHT22;52090;51.224;-2.328;2023-02-02T15:42:21;12.10;91.80
65050;DHT22;52090;51.224;-2.328;2023-02-02T15:46:25;12.10;91.80
65050;DHT22;52090;51.224;-2.328;2023-02-02T15:50:18;12.10;92.00
65050;DHT22;52090;51.224;-2.328;2023-02-02T15:54:00;12.00;91.60
65050;DHT22;52090;51.224;-2.328;2023-02-02T15:57:43;12.00;92.00
65050;DHT22;52090;51.224;-2.328;2023-02-02T16:01:29;11.90;91.90
65050;DHT22;52090;51.224;-2.328;2023-02-02T16:05:41;11.90;91.80
65050;DHT22;52090;51.224;-2.328;2023-02-02T16:09:33;11.90;91.30
65050;DHT22;52090;51.224;-2.328;2023-02-02T16:13:24;11.90;91.50
65050;DHT22;52090;51.224;-2.328;2023-02-02T16:17:23;11.80;91.60
65050;DHT22;52090;51.224;-2.328;2023-02-02T16:21:18;11.80;91.70
65050;DHT22;52090;51.224;-2.328;2023-02-02T16:25:06;11.80;91.70
65050;DHT22;52090;51.224;-2.328;2023-02-02T16:28:48;11.80;91.80
65050;DHT22;52090;51.224;-2.328;2023-02-02T16:32:35;11.80;92.00
65050;DHT22;52090;51.224;-2.328;2023-02-02T16:36:23;11.70;91.90
65050;DHT22;52090;51.224;-2.328;2023-02-02T16:40:28;11.70;92.00
65050;DHT22;52090;51.224;-2.328;2023-02-02T16:44:29;11.70;91.80
65050;DHT22;52090;51.224;-2.328;2023-02-02T16:48:28;11.80;91.60
65050;DHT22;52090;51.224;-2.328;2023-02-02T16:52:17;11.70;91.80
65050;DHT22;52090;51.224;-2.328;2023-02-02T16:55:59;11.80;92.00
65050;DHT22;52090;51.224;-2.328;2023-02-02T16:59:47;11.70;92.00
65050;DHT22;52090;51.224;-2.328;2023-02-02T17:03:32;11.70;91.70
65050;DHT22;52090;51.224;-2.328;2023-02-02T17:07:16;11.70;91.90
65050;DHT22;52090;51.224;-2.328;2023-02-02T17:11:17;11.60;92.00
65050;DHT22;52090;51.224;-2.328;2023-02-02T17:15:25;11.60;91.80
65050;DHT22;52090;51.224;-2.328;2023-02-02T17:19:05;11.60;92.00
65050;DHT22;52090;51.224;-2.328;2023-02-02T17:22:54;11.60;92.10
65050;DHT22;52090;51.224;-2.328;2023-02-02T17:26:36;11.70;91.90
65050;DHT22;52090;51.224;-2.328;2023-02-02T17:30:19;11.60;92.00
65050;DHT22;52090;51.224;-2.328;2023-02-02T17:34:01;11.60;91.90
65050;DHT22;52090;51.224;-2.328;2023-02-02T17:37:43;11.60;91.80
65050;DHT22;52090;51.224;-2.328;2023-02-02T17:41:25;11.60;91.80
65050;DHT22;52090;51.224;-2.328;2023-02-02T17:45:18;11.60;91.70
65050;DHT22;52090;51.224;-2.328;2023-02-02T17:49:00;11.50;91.50
65050;DHT22;52090;51.224;-2.328;2023-02-02T17:52:42;11.50;91.80
65050;DHT22;52090;51.224;-2.328;2023-02-02T17:56:26;11.50;91.90
65050;DHT22;52090;51.224;-2.328;2023-02-02T18:00:09;11.50;91.90
65050;DHT22;52090;51.224;-2.328;2023-02-02T18:03:51;11.50;91.90
65050;DHT22;52090;51.224;-2.328;2023-02-02T18:07:36;11.50;92.00
65050;DHT22;52090;51.224;-2.328;2023-02-02T18:11:18;11.50;92.10
65050;DHT22;52090;51.224;-2.328;2023-02-02T18:15:01;11.50;92.10
65050;DHT22;52090;51.224;-2.328;2023-02-02T18:18:43;11.50;92.10
65050;DHT22;52090;51.224;-2.328;2023-02-02T18:22:26;11.50;92.20
65050;DHT22;52090;51.224;-2.328;2023-02-02T18:26:19;11.50;92.20
65050;DHT22;52090;51.224;-2.328;2023-02-02T18:30:03;11.50;92.00
65050;DHT22;52090;51.224;-2.328;2023-02-02T18:33:45;11.50;92.20
65050;DHT22;52090;51.224;-2.328;2023-02-02T18:37:27;11.50;92.20
65050;DHT22;52090;51.224;-2.328;2023-02-02T18:41:09;11.60;92.30
65050;DHT22;52090;51.224;-2.328;2023-02-02T18:44:51;11.50;92.30
65050;DHT22;52090;51.224;-2.328;2023-02-02T18:48:34;11.60;92.30
65050;DHT22;52090;51.224;-2.328;2023-02-02T18:52:16;11.50;92.40
65050;DHT22;52090;51.224;-2.328;2023-02-02T18:56:06;11.60;92.40
65050;DHT22;52090;51.224;-2.328;2023-02-02T18:59:48;11.50;92.50
65050;DHT22;52090;51.224;-2.328;2023-02-02T19:03:33;11.50;92.50
65050;DHT22;52090;51.224;-2.328;2023-02-02T19:07:17;11.50;92.50
65050;DHT22;52090;51.224;-2.328;2023-02-02T19:11:31;11.40;92.60
65050;DHT22;52090;51.224;-2.328;2023-02-02T19:15:14;11.40;92.70
65050;DHT22;52090;51.224;-2.328;2023-02-02T19:18:59;11.40;92.80
65050;DHT22;52090;51.224;-2.328;2023-02-02T19:22:42;11.40;92.80
65050;DHT22;52090;51.224;-2.328;2023-02-02T19:26:25;11.40;92.90
65050;DHT22;52090;51.224;-2.328;2023-02-02T19:30:21;11.30;92.90
65050;DHT22;52090;51.224;-2.328;2023-02-02T19:34:11;11.30;93.10
65050;DHT22;52090;51.224;-2.328;2023-02-02T19:37:59;11.30;93.00
65050;DHT22;52090;51.224;-2.328;2023-02-02T19:41:42;11.30;93.00
65050;DHT22;52090;51.224;-2.328;2023-02-02T19:45:33;11.30;92.90
65050;DHT22;52090;51.224;-2.328;2023-02-02T19:49:23;11.30;93.10
65050;DHT22;52090;51.224;-2.328;2023-02-02T19:57:00;11.30;93.10
65050;DHT22;52090;51.224;-2.328;2023-02-02T20:00:46;11.30;93.00
65050;DHT22;52090;51.224;-2.328;2023-02-02T20:04:31;11.30;93.10
65050;DHT22;52090;51.224;-2.328;2023-02-02T20:08:51;11.30;93.10
65050;DHT22;52090;51.224;-2.328;2023-02-02T20:12:33;11.30;93.20
65050;DHT22;52090;51.224;-2.328;2023-02-02T20:16:18;11.30;93.10
65050;DHT22;52090;51.224;-2.328;2023-02-02T20:20:00;11.20;93.00
65050;DHT22;52090;51.224;-2.328;2023-02-02T20:23:43;11.20;93.00
65050;DHT22;52090;51.224;-2.328;2023-02-02T20:27:27;11.20;93.00
65050;DHT22;52090;51.224;-2.328;2023-02-02T20:31:17;11.20;92.90
65050;DHT22;52090;51.224;-2.328;2023-02-02T20:35:00;11.20;92.90
65050;DHT22;52090;51.224;-2.328;2023-02-02T20:38:44;11.30;92.90
65050;DHT22;52090;51.224;-2.328;2023-02-02T20:42:26;11.30;92.90
65050;DHT22;52090;51.224;-2.328;2023-02-02T20:46:08;11.20;92.90
65050;DHT22;52090;51.224;-2.328;2023-02-02T20:49:50;11.20;93.00
65050;DHT22;52090;51.224;-2.328;2023-02-02T20:53:32;11.20;93.00
65050;DHT22;52090;51.224;-2.328;2023-02-02T20:57:14;11.20;93.10
65050;DHT22;52090;51.224;-2.328;2023-02-02T21:00:56;11.20;93.10
65050;DHT22;52090;51.224;-2.328;2023-02-02T21:04:38;11.20;93.10
65050;DHT22;52090;51.224;-2.328;2023-02-02T21:08:26;11.20;93.10
65050;DHT22;52090;51.224;-2.328;2023-02-02T21:12:08;11.10;93.20
65050;DHT22;52090;51.224;-2.328;2023-02-02T21:15:50;11.10;93.40
65050;DHT22;52090;51.224;-2.328;2023-02-02T21:19:32;11.10;93.40
65050;DHT22;52090;51.224;-2.328;2023-02-02T21:23:14;11.10;93.50
65050;DHT22;52090;51.224;-2.328;2023-02-02T21:26:57;11.10;93.60
65050;DHT22;52090;51.224;-2.328;2023-02-02T21:30:40;11.10;93.60
65050;DHT22;52090;51.224;-2.328;2023-02-02T21:34:21;11.10;93.60
65050;DHT22;52090;51.224;-2.328;2023-02-02T21:38:09;11.10;93.60
65050;DHT22;52090;51.224;-2.328;2023-02-02T21:45:50;11.00;93.70
65050;DHT22;52090;51.224;-2.328;2023-02-02T21:49:36;11.00;93.60
65050;DHT22;52090;51.224;-2.328;2023-02-02T21:53:21;11.00;93.80
65050;DHT22;52090;51.224;-2.328;2023-02-02T21:57:19;11.00;94.10
65050;DHT22;52090;51.224;-2.328;2023-02-02T22:05:34;11.00;94.30
65050;DHT22;52090;51.224;-2.328;2023-02-02T22:09:24;11.00;94.10
65050;DHT22;52090;51.224;-2.328;2023-02-02T22:13:19;11.00;94.10
65050;DHT22;52090;51.224;-2.328;2023-02-02T22:17:21;11.00;94.20
65050;DHT22;52090;51.224;-2.328;2023-02-02T22:21:05;11.00;94.10
65050;DHT22;52090;51.224;-2.328;2023-02-02T22:25:05;10.90;93.80
65050;DHT22;52090;51.224;-2.328;2023-02-02T22:28:52;10.90;94.20
65050;DHT22;52090;51.224;-2.328;2023-02-02T22:32:34;10.90;94.20
65050;DHT22;52090;51.224;-2.328;2023-02-02T22:36:15;10.90;94.10
65050;DHT22;52090;51.224;-2.328;2023-02-02T22:39:57;10.90;94.10
65050;DHT22;52090;51.224;-2.328;2023-02-02T22:43:41;10.90;94.20
65050;DHT22;52090;51.224;-2.328;2023-02-02T22:47:23;11.00;94.20
65050;DHT22;52090;51.224;-2.328;2023-02-02T22:51:05;11.00;94.20
65050;DHT22;52090;51.224;-2.328;2023-02-02T22:54:46;11.00;94.20
65050;DHT22;52090;51.224;-2.328;2023-02-02T22:58:28;11.00;94.20
65050;DHT22;52090;51.224;-2.328;2023-02-02T23:02:10;11.00;94.20
65050;DHT22;52090;51.224;-2.328;2023-02-02T23:05:52;11.00;94.20
65050;DHT22;52090;51.224;-2.328;2023-02-02T23:09:33;11.10;94.20
65050;DHT22;52090;51.224;-2.328;2023-02-02T23:13:15;11.10;94.30
65050;DHT22;52090;51.224;-2.328;2023-02-02T23:16:58;11.10;94.20
65050;DHT22;52090;51.224;-2.328;2023-02-02T23:20:40;11.10;94.20
65050;DHT22;52090;51.224;-2.328;2023-02-02T23:24:21;11.10;94.20
65050;DHT22;52090;51.224;-2.328;2023-02-02T23:28:03;11.00;94.20
65050;DHT22;52090;51.224;-2.328;2023-02-02T23:31:45;11.10;94.20
65050;DHT22;52090;51.224;-2.328;2023-02-02T23:35:27;11.10;94.30
65050;DHT22;52090;51.224;-2.328;2023-02-02T23:39:09;11.10;94.20
65050;DHT22;52090;51.224;-2.328;2023-02-02T23:42:51;11.10;94.20
65050;DHT22;52090;51.224;-2.328;2023-02-02T23:46:33;11.00;94.20
65050;DHT22;52090;51.224;-2.328;2023-02-02T23:50:16;11.00;94.20
65050;DHT22;52090;51.224;-2.328;2023-02-02T23:53:58;11.00;94.40
65050;DHT22;52090;51.224;-2.328;2023-02-02T23:57:42;11.00;94.20
